createdAt,value
2023-03-23T15:57:56.389Z,12.42
2023-03-23T16:00:26.248Z,12.01
2023-03-23T16:03:00.221Z,11.83
2023-03-23T16:05:28.336Z,11.70
2023-03-23T16:07:55.956Z,12.29
2023-03-23T16:10:25.850Z,12.01
2023-03-23T16:12:52.811Z,12.02
2023-03-23T16:15:20.174Z,11.97
2023-03-23T16:17:47.924Z,12.10
2023-03-23T16:20:20.433Z,12.12
2023-03-23T16:22:48.248Z,12.10
2023-03-23T16:25:16.208Z,11.91
2023-03-23T16:27:44.080Z,11.91
2023-03-23T16:30:20.148Z,11.89
2023-03-23T16:32:47.652Z,11.67
2023-03-23T16:35:15.662Z,11.53
2023-03-23T16:37:48.029Z,11.51
2023-03-23T16:40:20.098Z,11.44
2023-03-23T16:42:47.638Z,11.68
2023-03-23T16:45:15.579Z,11.78
2023-03-23T16:47:46.283Z,11.89
2023-03-23T16:50:17.414Z,11.90
2023-03-23T16:52:47.776Z,11.59
2023-03-23T16:55:19.209Z,11.50
2023-03-23T16:57:46.189Z,11.29
2023-03-23T17:00:16.533Z,11.31
2023-03-23T17:02:44.041Z,11.28
2023-03-23T17:05:11.961Z,11.19
2023-03-23T17:07:40.349Z,11.11
2023-03-23T17:10:09.777Z,11.03
2023-03-23T17:12:37.301Z,10.98
2023-03-23T17:15:05.464Z,10.93
2023-03-23T17:17:32.971Z,10.67
2023-03-23T17:20:00.561Z,10.50
2023-03-23T17:22:27.855Z,10.33
2023-03-23T17:24:54.867Z,10.14
2023-03-23T17:27:25.477Z,10.13
2023-03-23T17:29:52.285Z,10.08
2023-03-23T17:32:20.955Z,10.06
2023-03-23T17:34:47.886Z,10.02
2023-03-23T17:37:14.728Z,9.98
2023-03-23T17:39:43.241Z,9.91
2023-03-23T17:42:10.659Z,9.85
2023-03-23T17:44:37.809Z,9.84
2023-03-23T17:47:05.105Z,9.80
2023-03-23T17:49:32.366Z,9.65
2023-03-23T17:52:00.659Z,9.66
2023-03-23T17:54:29.782Z,9.75
2023-03-23T17:56:58.864Z,9.79
2023-03-23T17:59:28.545Z,9.81
2023-03-23T18:01:55.544Z,9.82
2023-03-23T18:04:23.021Z,9.88
2023-03-23T18:06:49.902Z,9.54
2023-03-23T18:09:16.784Z,9.45
2023-03-23T18:11:43.699Z,9.40
2023-03-23T18:14:10.936Z,9.13
2023-03-23T18:16:38.031Z,8.89
2023-03-23T18:19:05.164Z,8.98
2023-03-23T18:21:32.236Z,8.84
2023-03-23T18:24:00.154Z,8.75
2023-03-23T18:26:28.735Z,8.62
2023-03-23T18:28:56.414Z,8.66
2023-03-23T18:31:23.593Z,8.68
2023-03-23T18:33:54.739Z,8.55
2023-03-23T18:36:25.114Z,8.70
2023-03-23T18:38:56.960Z,8.74
2023-03-23T18:41:24.707Z,8.74
2023-03-23T18:43:51.981Z,8.68
2023-03-23T18:46:19.297Z,8.66
2023-03-23T18:48:46.222Z,8.66
2023-03-23T18:51:13.193Z,8.77
2023-03-23T18:53:40.894Z,8.74
2023-03-23T18:56:21.014Z,8.85
2023-03-23T18:58:48.143Z,8.88
2023-03-23T19:01:17.523Z,8.82
2023-03-23T19:03:45.716Z,8.75
2023-03-23T19:06:24.958Z,8.81
2023-03-23T19:08:52.518Z,8.54
2023-03-23T19:11:21.081Z,8.71
2023-03-23T19:14:00.498Z,8.65
2023-03-23T19:16:29.713Z,8.66
2023-03-23T19:18:56.565Z,8.69
2023-03-23T19:21:25.778Z,8.68
2023-03-23T19:23:54.540Z,8.74
2023-03-23T19:26:29.263Z,8.77
2023-03-23T19:31:26.149Z,8.83
2023-03-23T19:33:53.731Z,8.90
2023-03-23T19:36:22.865Z,8.99
2023-03-23T19:38:50.843Z,9.23
2023-03-23T19:41:19.299Z,9.09
2023-03-23T19:43:46.727Z,9.03
2023-03-23T19:46:15.046Z,8.98
2023-03-23T19:48:42.715Z,8.86
2023-03-23T19:51:12.201Z,8.87
2023-03-23T19:53:39.804Z,8.63
2023-03-23T19:56:16.426Z,8.68
2023-03-23T19:58:43.569Z,8.64
2023-03-23T20:01:11.359Z,8.72
2023-03-23T20:03:39.497Z,8.68
2023-03-23T20:06:11.255Z,8.77
2023-03-23T20:08:43.569Z,8.72
2023-03-23T20:11:13.479Z,8.69
2023-03-23T20:13:41.740Z,8.68
2023-03-23T20:16:09.925Z,8.70
2023-03-23T20:18:38.302Z,8.72
2023-03-23T20:21:11.088Z,8.71
2023-03-23T20:23:39.484Z,8.75
2023-03-23T20:26:11.704Z,8.81
2023-03-23T20:28:40.719Z,8.69
2023-03-23T20:31:19.907Z,8.67
2023-03-23T20:34:00.096Z,8.72
2023-03-23T20:36:36.401Z,8.78
2023-03-23T20:39:14.340Z,8.82
2023-03-23T20:41:43.874Z,8.94
2023-03-23T20:44:14.366Z,8.94
2023-03-23T20:46:42.758Z,8.99
2023-03-23T20:49:10.243Z,8.99
2023-03-23T20:51:37.542Z,9.06
2023-03-23T20:54:06.233Z,9.08
2023-03-23T20:56:34.631Z,9.14
2023-03-23T20:59:02.072Z,8.90
2023-03-23T21:01:29.659Z,9.09
2023-03-23T21:03:58.051Z,9.00
2023-03-23T21:06:28.598Z,9.06
2023-03-23T21:08:57.278Z,9.17
2023-03-23T21:11:26.169Z,9.11
2023-03-23T21:13:53.531Z,9.05
2023-03-23T21:16:20.827Z,9.00
2023-03-23T21:18:48.001Z,8.80
2023-03-23T21:21:18.513Z,8.98
2023-03-23T21:23:47.592Z,9.01
2023-03-23T21:26:17.195Z,9.04
2023-03-23T21:28:50.896Z,9.04
2023-03-23T21:31:18.469Z,9.04
2023-03-23T21:33:45.704Z,8.81
2023-03-23T21:36:12.696Z,9.06
2023-03-23T21:38:40.097Z,9.11
2023-03-23T21:41:13.447Z,9.21
2023-03-23T21:43:40.897Z,9.01
2023-03-23T21:46:09.836Z,9.21
2023-03-23T21:48:38.889Z,9.23
2023-03-23T21:51:12.590Z,9.28
2023-03-23T21:53:42.334Z,9.31
2023-03-23T21:56:11.206Z,9.30
2023-03-23T21:58:38.770Z,9.29
2023-03-23T22:01:06.138Z,9.36
2023-03-23T22:03:35.447Z,9.34
2023-03-23T22:06:27.091Z,9.34
2023-03-23T22:08:55.191Z,9.38
2023-03-23T22:11:25.979Z,9.47
2023-03-23T22:13:54.664Z,9.38
2023-03-23T22:16:23.587Z,9.31
2023-03-23T22:18:52.534Z,9.08
2023-03-23T22:21:22.209Z,9.22
2023-03-23T22:23:49.749Z,9.08
2023-03-23T22:26:16.829Z,9.08
2023-03-23T22:28:46.535Z,9.08
2023-03-23T22:31:21.539Z,9.12
2023-03-23T22:33:49.763Z,9.15
2023-03-23T22:36:17.840Z,9.07
2023-03-23T22:38:47.113Z,9.22
2023-03-23T22:41:23.342Z,9.30
2023-03-23T22:43:50.373Z,9.24
2023-03-23T22:46:18.343Z,9.27
2023-03-23T22:48:45.945Z,9.31
2023-03-23T22:51:17.527Z,9.28
2023-03-23T22:53:45.473Z,9.29
2023-03-23T22:56:13.145Z,9.25
2023-03-23T22:58:40.220Z,9.10
2023-03-23T23:01:12.020Z,9.31
2023-03-23T23:03:40.582Z,9.33
2023-03-23T23:06:08.380Z,9.38
2023-03-23T23:08:35.412Z,9.43
2023-03-23T23:11:04.214Z,9.31
2023-03-23T23:13:36.667Z,9.55
2023-03-23T23:16:03.798Z,9.51
2023-03-23T23:18:33.367Z,9.54
2023-03-23T23:21:04.722Z,9.52
2023-03-23T23:23:32.029Z,9.62
2023-03-23T23:25:59.095Z,9.65
2023-03-23T23:28:26.902Z,9.71
2023-03-23T23:30:54.223Z,9.74
2023-03-23T23:33:22.405Z,9.80
2023-03-23T23:35:49.964Z,9.85
2023-03-23T23:38:17.310Z,9.87
2023-03-23T23:40:46.390Z,9.86
2023-03-23T23:43:15.505Z,9.90
2023-03-23T23:45:43.427Z,9.93
2023-03-23T23:48:10.955Z,9.92
2023-03-23T23:50:38.124Z,9.85
2023-03-23T23:53:05.181Z,9.79
2023-03-23T23:55:33.249Z,9.83
2023-03-23T23:58:00.235Z,9.88
